createdAt,value
2019-03-15T00:02:15.524Z,9.74
2019-03-15T00:05:06.098Z,9.71
2019-03-15T00:07:56.347Z,9.81
2019-03-15T00:10:46.416Z,9.89
2019-03-15T00:13:36.354Z,9.83
2019-03-15T00:16:26.620Z,9.83
2019-03-15T00:19:16.815Z,9.74
2019-03-15T00:22:08.631Z,9.80
2019-03-15T00:25:00.201Z,9.74
2019-03-15T00:27:50.382Z,9.77
2019-03-15T00:30:40.502Z,9.73
2019-03-15T00:33:30.550Z,9.81
2019-03-15T00:36:20.789Z,9.75
2019-03-15T00:39:11.439Z,9.84
2019-03-15T00:42:01.453Z,9.79
2019-03-15T00:44:51.727Z,9.84
2019-03-15T00:47:41.877Z,9.75
2019-03-15T00:50:31.973Z,9.69
2019-03-15T00:53:22.278Z,9.76
2019-03-15T00:56:12.750Z,9.74
2019-03-15T00:59:02.734Z,9.74
2019-03-15T01:01:52.703Z,9.67
2019-03-15T01:04:42.953Z,9.70
2019-03-15T01:07:33.341Z,9.85
2019-03-15T01:10:23.600Z,9.92
2019-03-15T01:13:13.621Z,9.84
2019-03-15T01:16:04.167Z,9.88
2019-03-15T01:18:54.190Z,9.90
2019-03-15T01:21:44.679Z,9.86
2019-03-15T01:24:34.819Z,9.83
2019-03-15T01:27:25.098Z,9.80
2019-03-15T01:30:15.092Z,9.70
2019-03-15T01:33:05.197Z,9.77
2019-03-15T01:35:55.486Z,9.88
2019-03-15T01:38:45.398Z,10.00
2019-03-15T01:41:38.214Z,9.97
2019-03-15T01:44:28.539Z,9.92
2019-03-15T01:47:19.045Z,9.54
2019-03-15T01:50:09.605Z,9.51
2019-03-15T01:53:02.348Z,9.60
2019-03-15T01:55:52.685Z,9.53
2019-03-15T01:58:43.157Z,9.51
2019-03-15T02:01:33.571Z,9.53
2019-03-15T02:04:24.169Z,9.52
2019-03-15T02:07:14.309Z,9.52
2019-03-15T02:10:04.864Z,9.59
2019-03-15T02:12:54.884Z,9.63
2019-03-15T02:15:45.458Z,9.63
2019-03-15T02:18:36.455Z,9.66
2019-03-15T02:21:26.763Z,9.65
2019-03-15T02:24:17.077Z,9.61
2019-03-15T02:27:07.275Z,9.71
2019-03-15T02:29:57.743Z,9.69
2019-03-15T02:32:48.169Z,9.60
2019-03-15T02:35:38.066Z,9.66
2019-03-15T02:38:28.426Z,9.66
2019-03-15T02:41:18.647Z,9.72
2019-03-15T02:44:08.915Z,9.59
2019-03-15T02:46:59.437Z,9.57
2019-03-15T02:49:49.703Z,9.65
2019-03-15T02:52:39.959Z,9.63
2019-03-15T02:55:30.550Z,9.65
2019-03-15T02:58:21.061Z,9.66
2019-03-15T03:01:11.436Z,9.62
2019-03-15T03:04:01.440Z,9.78
2019-03-15T03:06:51.755Z,9.96
2019-03-15T03:09:42.120Z,10.07
2019-03-15T03:12:32.396Z,10.11
2019-03-15T03:15:25.403Z,10.15
2019-03-15T03:18:15.699Z,10.14
2019-03-15T03:21:05.877Z,10.07
2019-03-15T03:23:57.328Z,10.07
2019-03-15T03:26:47.739Z,10.05
2019-03-15T03:29:40.873Z,10.04
2019-03-15T03:32:32.331Z,10.05
2019-03-15T03:35:22.580Z,10.03
2019-03-15T03:38:13.216Z,10.03
2019-03-15T03:41:03.550Z,10.01
2019-03-15T03:43:53.958Z,10.08
2019-03-15T03:46:44.018Z,9.92
2019-03-15T03:49:35.052Z,10.03
2019-03-15T03:52:25.611Z,9.97
2019-03-15T03:55:15.901Z,9.98
2019-03-15T03:58:07.106Z,10.00
2019-03-15T04:00:57.380Z,9.89
2019-03-15T04:03:47.784Z,9.86
2019-03-15T04:06:38.123Z,9.89
2019-03-15T04:09:28.358Z,9.88
2019-03-15T04:12:18.779Z,9.90
2019-03-15T04:15:10.503Z,9.92
2019-03-15T04:18:00.855Z,9.93
2019-03-15T04:20:50.840Z,9.95
2019-03-15T04:23:41.387Z,9.98
2019-03-15T04:26:31.704Z,9.85
2019-03-15T04:29:21.911Z,9.93
2019-03-15T04:32:12.151Z,9.80
2019-03-15T04:35:02.519Z,9.89
2019-03-15T04:37:52.704Z,9.80
2019-03-15T04:40:42.968Z,9.80
2019-03-15T04:43:33.539Z,9.72
2019-03-15T04:46:23.924Z,9.71
2019-03-15T04:49:14.086Z,9.75
2019-03-15T04:52:04.380Z,9.59
2019-03-15T04:54:54.724Z,9.68
2019-03-15T04:57:44.999Z,9.68
2019-03-15T05:00:35.493Z,9.75
2019-03-15T05:03:25.799Z,9.81
2019-03-15T05:06:16.125Z,9.88
2019-03-15T05:09:07.268Z,9.86
2019-03-15T05:11:57.543Z,9.84
2019-03-15T05:14:47.679Z,9.83
2019-03-15T05:17:38.250Z,9.85
2019-03-15T05:20:28.295Z,9.78
2019-03-15T05:23:18.324Z,9.75
2019-03-15T05:26:08.610Z,9.64
2019-03-15T05:28:58.578Z,9.75
2019-03-15T05:31:48.791Z,9.88
2019-03-15T05:34:39.144Z,9.83
2019-03-15T05:37:29.416Z,9.85
2019-03-15T05:40:19.675Z,9.89
2019-03-15T05:43:10.104Z,9.94
2019-03-15T05:46:00.451Z,9.92
2019-03-15T05:48:50.739Z,10.13
2019-03-15T05:51:40.800Z,10.20
2019-03-15T05:54:31.006Z,10.20
2019-03-15T05:57:21.308Z,10.18
2019-03-15T06:00:12.623Z,10.23
2019-03-15T06:03:04.098Z,10.35
2019-03-15T06:05:54.722Z,10.35
2019-03-15T06:08:45.081Z,10.51
2019-03-15T06:11:35.363Z,10.56
2019-03-15T06:14:25.765Z,10.53
2019-03-15T06:17:18.536Z,10.50
2019-03-15T06:20:09.393Z,10.56
2019-03-15T06:23:00.959Z,10.54
2019-03-15T06:25:51.543Z,10.58
2019-03-15T06:28:41.870Z,10.47
2019-03-15T06:31:32.142Z,10.55
2019-03-15T06:34:22.451Z,10.61
2019-03-15T06:37:12.899Z,10.60
2019-03-15T06:40:03.145Z,10.63
2019-03-15T06:42:56.006Z,10.57
2019-03-15T06:45:46.054Z,10.58
2019-03-15T06:48:36.674Z,10.59
2019-03-15T06:51:26.839Z,10.61
2019-03-15T06:54:17.305Z,10.74
2019-03-15T06:57:07.657Z,10.68
2019-03-15T06:59:59.556Z,10.65
2019-03-15T07:02:49.951Z,10.70
2019-03-15T07:05:41.321Z,10.74
2019-03-15T07:08:31.357Z,10.67
2019-03-15T07:11:21.488Z,10.81
2019-03-15T07:14:11.461Z,10.85
2019-03-15T07:17:02.140Z,11.06
2019-03-15T07:19:52.181Z,11.40
2019-03-15T07:22:42.538Z,11.64
2019-03-15T07:25:32.848Z,11.48
2019-03-15T07:28:23.732Z,11.44
2019-03-15T07:31:14.167Z,11.29
2019-03-15T07:34:04.810Z,11.35
2019-03-15T07:36:55.512Z,11.36
2019-03-15T07:39:46.872Z,11.30
2019-03-15T07:42:37.254Z,11.13
2019-03-15T07:45:28.982Z,11.15
2019-03-15T07:48:22.782Z,10.91
2019-03-15T07:51:10.969Z,10.93
2019-03-15T07:54:01.178Z,10.87
2019-03-15T07:56:51.463Z,10.72
2019-03-15T07:59:42.872Z,10.65
2019-03-15T08:02:33.078Z,10.49
2019-03-15T08:05:23.360Z,10.29
2019-03-15T08:08:14.031Z,10.16
2019-03-15T08:11:04.210Z,10.13
2019-03-15T08:13:54.645Z,9.85
2019-03-15T08:16:44.849Z,9.72
2019-03-15T08:19:35.103Z,9.61
2019-03-15T08:22:25.413Z,9.60
2019-03-15T08:25:15.645Z,9.51
2019-03-15T08:28:05.765Z,9.37
2019-03-15T08:30:56.087Z,9.47
2019-03-15T08:33:46.097Z,9.49
2019-03-15T08:36:36.912Z,9.68
2019-03-15T08:39:27.300Z,9.77
2019-03-15T08:42:17.359Z,9.86
2019-03-15T08:45:09.846Z,10.06
2019-03-15T08:48:00.026Z,10.22
2019-03-15T08:50:50.229Z,10.16
2019-03-15T08:53:43.503Z,10.21
2019-03-15T08:56:33.765Z,10.13
2019-03-15T08:59:24.076Z,10.23
2019-03-15T09:02:14.728Z,10.18
2019-03-15T09:05:05.571Z,10.34
2019-03-15T09:07:55.543Z,10.41
2019-03-15T09:10:46.054Z,10.49
2019-03-15T09:13:36.379Z,10.41
2019-03-15T09:16:26.951Z,10.50
2019-03-15T09:19:17.351Z,10.66
2019-03-15T09:22:07.769Z,10.77
2019-03-15T09:24:58.080Z,10.89
2019-03-15T09:27:48.692Z,10.82
2019-03-15T09:30:38.973Z,10.91
2019-03-15T09:33:28.966Z,11.07
2019-03-15T09:36:19.226Z,11.19
2019-03-15T09:39:10.436Z,11.38
2019-03-15T09:42:03.390Z,11.44
2019-03-15T09:44:53.502Z,11.65
2019-03-15T09:47:43.829Z,11.73
2019-03-15T09:50:50.067Z,11.92
2019-03-15T09:53:26.660Z,11.96
2019-03-15T09:56:17.078Z,12.12
2019-03-15T09:59:07.669Z,12.61
2019-03-15T10:01:58.298Z,12.67
2019-03-15T10:04:48.325Z,13.14
2019-03-15T10:07:42.764Z,13.19
2019-03-15T10:10:30.531Z,12.98
2019-03-15T10:13:20.606Z,13.36
2019-03-15T10:16:10.853Z,13.83
2019-03-15T10:19:01.203Z,13.91
2019-03-15T10:21:51.512Z,13.47
2019-03-15T10:24:42.420Z,13.03
2019-03-15T10:27:32.925Z,13.09
2019-03-15T10:30:23.666Z,13.38
2019-03-15T10:33:13.769Z,13.18
2019-03-15T10:36:03.923Z,13.37
2019-03-15T10:38:54.303Z,13.45
2019-03-15T10:41:44.492Z,13.55
2019-03-15T10:44:34.500Z,13.65
2019-03-15T10:47:24.874Z,13.69
2019-03-15T10:50:15.096Z,14.09
2019-03-15T10:53:05.298Z,13.99
2019-03-15T10:56:00.537Z,14.41
2019-03-15T10:58:47.505Z,14.36
2019-03-15T11:01:40.580Z,14.40
2019-03-15T11:04:30.875Z,14.13
2019-03-15T11:07:20.892Z,13.96
2019-03-15T11:10:11.212Z,13.77
2019-03-15T11:13:01.841Z,13.54
2019-03-15T11:15:52.327Z,13.25
2019-03-15T11:18:42.526Z,13.55
2019-03-15T11:21:32.558Z,13.58
2019-03-15T11:24:22.783Z,13.32
2019-03-15T11:27:13.167Z,13.14
2019-03-15T11:30:03.390Z,13.44
2019-03-15T11:32:56.584Z,13.17
2019-03-15T11:35:47.096Z,13.09
2019-03-15T11:38:37.358Z,13.29
2019-03-15T11:41:27.734Z,13.05
2019-03-15T11:44:17.789Z,12.97
2019-03-15T11:47:08.098Z,13.02
2019-03-15T11:49:58.851Z,13.20
2019-03-15T11:52:48.830Z,13.32
2019-03-15T11:55:39.654Z,13.29
2019-03-15T11:58:29.905Z,13.27
2019-03-15T12:01:20.049Z,13.45
2019-03-15T12:04:10.223Z,13.23
2019-03-15T12:07:00.851Z,13.13
2019-03-15T12:09:51.337Z,13.14
2019-03-15T12:12:41.999Z,13.17
2019-03-15T12:15:32.169Z,13.28
2019-03-15T12:18:22.157Z,13.23
2019-03-15T12:21:12.546Z,13.20
2019-03-15T12:24:02.809Z,13.15
2019-03-15T12:26:53.053Z,13.24
2019-03-15T12:29:43.130Z,13.41
2019-03-15T12:32:37.842Z,13.42
2019-03-15T12:35:29.590Z,13.64
2019-03-15T12:38:19.564Z,13.46
2019-03-15T12:41:09.807Z,13.43
2019-03-15T12:44:00.194Z,13.52
2019-03-15T12:46:50.899Z,13.44
2019-03-15T12:49:41.247Z,13.39
2019-03-15T12:52:45.901Z,13.33
2019-03-15T12:55:24.901Z,13.39
2019-03-15T12:58:15.437Z,13.48
2019-03-15T13:01:05.617Z,13.76
2019-03-15T13:03:55.899Z,13.82
2019-03-15T13:06:46.082Z,14.06
2019-03-15T13:09:36.526Z,14.15
2019-03-15T13:12:26.829Z,14.02
2019-03-15T13:15:17.047Z,14.30
2019-03-15T13:18:07.374Z,14.40
2019-03-15T13:20:58.123Z,14.13
2019-03-15T13:23:49.756Z,13.96
2019-03-15T13:26:40.298Z,14.23
2019-03-15T13:29:30.589Z,14.23
2019-03-15T13:32:20.856Z,14.28
2019-03-15T13:35:11.306Z,14.24
2019-03-15T13:38:04.453Z,14.15
2019-03-15T13:40:54.586Z,14.15
2019-03-15T13:43:44.655Z,14.16
2019-03-15T13:46:34.891Z,14.11
2019-03-15T13:49:25.224Z,13.86
2019-03-15T13:52:15.541Z,13.98
2019-03-15T13:55:07.123Z,13.90
2019-03-15T13:57:57.538Z,13.82
2019-03-15T14:00:47.968Z,13.90
2019-03-15T14:03:38.372Z,13.83
2019-03-15T14:06:28.515Z,13.94
2019-03-15T14:09:18.603Z,14.00
2019-03-15T14:12:08.763Z,14.21
2019-03-15T14:14:59.253Z,14.13
2019-03-15T14:17:49.605Z,14.25
2019-03-15T14:20:39.892Z,14.42
2019-03-15T14:23:30.236Z,14.38
2019-03-15T14:26:20.495Z,14.39
2019-03-15T14:29:11.369Z,14.41
2019-03-15T14:32:01.765Z,14.33
2019-03-15T14:34:52.081Z,14.27
2019-03-15T14:37:42.246Z,14.09
2019-03-15T14:40:32.867Z,14.15
2019-03-15T14:43:23.032Z,14.04
2019-03-15T14:46:13.134Z,13.95
2019-03-15T14:49:03.412Z,14.04
2019-03-15T14:51:53.570Z,14.04
2019-03-15T14:54:43.922Z,13.99
2019-03-15T14:57:34.652Z,13.95
2019-03-15T15:00:25.082Z,13.90
2019-03-15T15:03:15.413Z,13.91
2019-03-15T15:06:05.626Z,13.68
2019-03-15T15:08:55.843Z,13.73
2019-03-15T15:11:45.854Z,13.67
2019-03-15T15:14:36.528Z,13.84
2019-03-15T15:17:26.830Z,13.72
2019-03-15T15:20:16.989Z,13.68
2019-03-15T15:23:07.290Z,13.65
2019-03-15T15:25:57.507Z,13.64
2019-03-15T15:28:47.820Z,13.47
2019-03-15T15:31:38.125Z,13.47
2019-03-15T15:34:28.279Z,13.35
2019-03-15T15:37:18.404Z,13.35
2019-03-15T15:40:09.722Z,13.28
2019-03-15T15:42:59.944Z,13.30
2019-03-15T15:45:50.273Z,13.32
2019-03-15T15:48:40.393Z,13.28
2019-03-15T15:51:30.764Z,13.21
2019-03-15T15:54:21.482Z,13.21
2019-03-15T15:57:12.870Z,13.17
2019-03-15T16:00:04.257Z,13.29
2019-03-15T16:02:54.663Z,13.22
2019-03-15T16:05:45.237Z,13.23
2019-03-15T16:08:35.127Z,13.15
2019-03-15T16:11:25.461Z,13.00
2019-03-15T16:14:15.658Z,12.88
2019-03-15T16:17:05.666Z,12.75
2019-03-15T16:19:55.657Z,12.56
2019-03-15T16:22:46.227Z,12.56
2019-03-15T16:25:36.570Z,12.45
2019-03-15T16:28:31.725Z,12.47
2019-03-15T16:31:19.176Z,12.33
2019-03-15T16:34:09.423Z,12.31
2019-03-15T16:36:59.653Z,12.33
2019-03-15T16:39:49.739Z,12.30
2019-03-15T16:42:40.073Z,12.19
2019-03-15T16:45:30.370Z,12.11
2019-03-15T16:48:20.646Z,12.07
2019-03-15T16:51:19.499Z,12.07
2019-03-15T16:54:02.890Z,12.04
2019-03-15T16:56:53.247Z,12.05
2019-03-15T16:59:43.569Z,11.91
2019-03-15T17:02:34.511Z,11.89
2019-03-15T17:05:24.557Z,11.98
2019-03-15T17:08:14.610Z,12.02
2019-03-15T17:11:04.830Z,11.99
2019-03-15T17:13:54.906Z,11.93
2019-03-15T17:16:45.126Z,11.84
2019-03-15T17:19:35.338Z,11.90
2019-03-15T17:22:25.693Z,11.85
2019-03-15T17:25:15.970Z,11.87
2019-03-15T17:28:06.336Z,11.92
2019-03-15T17:31:09.137Z,11.90
2019-03-15T17:33:48.930Z,11.88
2019-03-15T17:36:39.447Z,11.93
2019-03-15T17:39:30.713Z,11.90
2019-03-15T17:42:21.169Z,11.86
2019-03-15T17:45:11.620Z,11.92
2019-03-15T17:48:02.350Z,11.86
2019-03-15T17:50:52.310Z,11.92
2019-03-15T17:53:42.619Z,11.92
2019-03-15T17:56:33.152Z,11.83
2019-03-15T17:59:23.425Z,11.88
2019-03-15T18:02:13.503Z,11.95
2019-03-15T18:05:04.508Z,11.93
2019-03-15T18:07:55.405Z,11.97
2019-03-15T18:10:45.654Z,12.01
2019-03-15T18:13:36.104Z,11.95
2019-03-15T18:16:26.693Z,11.91
2019-03-15T18:19:16.731Z,11.89
2019-03-15T18:22:07.302Z,11.33
2019-03-15T18:24:57.220Z,11.25
2019-03-15T18:27:47.313Z,11.09
2019-03-15T18:30:37.911Z,11.32
2019-03-15T18:33:30.780Z,11.46
2019-03-15T18:36:21.065Z,11.48
2019-03-15T18:39:11.466Z,11.44
2019-03-15T18:42:01.934Z,11.42
2019-03-15T18:44:52.458Z,11.35
2019-03-15T18:47:42.629Z,11.35
2019-03-15T18:50:32.845Z,11.35
2019-03-15T18:53:23.202Z,11.37
2019-03-15T18:56:13.353Z,11.34
2019-03-15T18:59:03.744Z,11.32
2019-03-15T19:01:53.960Z,11.29
2019-03-15T19:04:44.162Z,11.18
2019-03-15T19:07:34.844Z,11.23
2019-03-15T19:10:25.020Z,11.21
2019-03-15T19:13:15.650Z,11.29
2019-03-15T19:16:19.331Z,11.25
2019-03-15T19:18:57.685Z,11.28
2019-03-15T19:21:47.937Z,11.24
2019-03-15T19:24:38.476Z,11.27
2019-03-15T19:27:28.432Z,11.26
2019-03-15T19:30:18.517Z,11.31
2019-03-15T19:33:08.713Z,11.35
2019-03-15T19:35:58.908Z,11.25
2019-03-15T19:38:49.042Z,11.25
2019-03-15T19:41:39.637Z,11.29
2019-03-15T19:44:29.968Z,11.25
2019-03-15T19:47:20.018Z,11.26
2019-03-15T19:50:12.389Z,11.21
2019-03-15T19:53:02.489Z,11.21
2019-03-15T19:55:52.788Z,11.21
2019-03-15T19:58:42.987Z,11.21
2019-03-15T20:01:34.220Z,11.22
2019-03-15T20:04:24.740Z,11.30
2019-03-15T20:07:14.798Z,11.29
2019-03-15T20:10:05.089Z,11.34
2019-03-15T20:12:56.688Z,11.23
2019-03-15T20:15:47.199Z,11.21
2019-03-15T20:18:37.652Z,11.25
2019-03-15T20:21:27.852Z,11.22
2019-03-15T20:24:18.153Z,11.17
2019-03-15T20:27:08.545Z,11.20
2019-03-15T20:29:58.980Z,11.18
2019-03-15T20:32:49.385Z,11.18
2019-03-15T20:35:39.632Z,11.18
2019-03-15T20:38:29.668Z,11.30
2019-03-15T20:41:19.946Z,11.27
2019-03-15T20:44:11.452Z,11.19
2019-03-15T20:47:03.693Z,11.25
2019-03-15T20:49:54.261Z,11.18
2019-03-15T20:52:44.657Z,11.26
2019-03-15T20:55:35.136Z,11.25
2019-03-15T20:58:25.268Z,11.20
2019-03-15T21:01:15.433Z,11.16
2019-03-15T21:04:05.831Z,11.09
2019-03-15T21:06:58.880Z,11.09
2019-03-15T21:09:49.231Z,11.07
2019-03-15T21:12:40.495Z,11.07
2019-03-15T21:15:30.737Z,11.03
2019-03-15T21:18:20.770Z,11.03
2019-03-15T21:21:11.046Z,11.01
2019-03-15T21:24:01.478Z,10.96
2019-03-15T21:26:51.820Z,11.01
2019-03-15T21:29:42.166Z,10.94
2019-03-15T21:32:32.393Z,10.94
2019-03-15T21:35:22.640Z,10.91
2019-03-15T21:38:12.708Z,10.85
2019-03-15T21:41:02.787Z,10.85
2019-03-15T21:43:53.073Z,10.86
2019-03-15T21:46:43.484Z,10.73
2019-03-15T21:49:36.376Z,10.73
2019-03-15T21:52:28.185Z,10.74
2019-03-15T21:55:18.271Z,10.69
2019-03-15T21:58:08.642Z,10.73
2019-03-15T22:01:02.731Z,10.72
2019-03-15T22:03:50.833Z,10.73
2019-03-15T22:06:41.199Z,10.75
2019-03-15T22:09:31.567Z,10.75
2019-03-15T22:12:21.616Z,10.78
2019-03-15T22:15:11.651Z,10.84
2019-03-15T22:18:01.927Z,10.89
2019-03-15T22:20:52.149Z,10.86
2019-03-15T22:23:42.410Z,10.82
2019-03-15T22:26:33.184Z,10.93
2019-03-15T22:29:23.508Z,11.01
2019-03-15T22:32:13.765Z,11.12
2019-03-15T22:35:04.194Z,11.07
2019-03-15T22:37:54.233Z,11.02
2019-03-15T22:40:44.685Z,11.04
2019-03-15T22:43:35.073Z,10.98
2019-03-15T22:46:26.421Z,11.03
2019-03-15T22:49:16.475Z,11.03
2019-03-15T22:52:07.096Z,11.10
2019-03-15T22:54:57.396Z,11.06
2019-03-15T22:57:59.261Z,11.07
2019-03-15T23:00:39.672Z,11.03
2019-03-15T23:03:34.393Z,11.05
2019-03-15T23:06:24.854Z,11.06
2019-03-15T23:09:15.218Z,11.11
2019-03-15T23:12:06.701Z,11.06
2019-03-15T23:14:57.184Z,10.99
2019-03-15T23:17:47.711Z,10.95
2019-03-15T23:20:37.980Z,10.92
2019-03-15T23:23:28.233Z,10.87
2019-03-15T23:26:18.836Z,10.91
2019-03-15T23:29:09.284Z,10.92
2019-03-15T23:31:59.838Z,10.92
2019-03-15T23:34:49.837Z,10.90
2019-03-15T23:37:40.120Z,10.93
2019-03-15T23:40:30.199Z,10.96
2019-03-15T23:43:20.677Z,10.98
2019-03-15T23:46:11.195Z,10.89
2019-03-15T23:49:01.536Z,10.84
2019-03-15T23:51:51.806Z,10.81
2019-03-15T23:54:42.108Z,10.80
2019-03-15T23:57:32.530Z,10.80
